Time;durP1;ratioP1;P1;durP2;ratioP2;P2;SDS_P1;SDS_P2;PMS_P1;PMS_P2;Temp;Humidity;BMP_temperature;BMP_pressure;BME280_temperature;BME280_humidity;BME280_pressure;Samples;Min_cycle;Max_cycle;Signal;HPM_P1;HPM_P2
2022/05/18 06:26:59;;;;;;;10.15;3.45;;;;;;;18.39;58.46;97154.16;2092799;27;20566;-55
2022/05/18 06:28:01;;;;;;;5.90;2.50;;;;;;;18.39;57.80;97133.84;2064139;28;20245;-56
2022/05/18 06:29:03;;;;;;;13.07;4.00;;;;;;;18.55;58.10;97149.53;2061682;28;20206;-56
2022/05/18 06:30:06;;;;;;;5.97;3.65;;;;;;;18.64;56.99;97142.75;2063829;28;20193;-56
2022/05/18 06:31:08;;;;;;;5.95;2.30;;;;;;;18.67;56.91;97149.63;2056058;28;20209;-56
2022/05/18 06:32:09;;;;;;;5.50;2.58;;;;;;;18.80;56.74;97152.25;2064641;28;20203;-56
2022/05/18 06:33:11;;;;;;;8.75;3.15;;;;;;;18.91;56.58;97150.56;2064205;28;20193;-56
2022/05/18 06:34:12;;;;;;;7.13;3.00;;;;;;;18.92;54.42;97148.78;2056269;28;20204;-56
2022/05/18 06:35:14;;;;;;;5.82;2.80;;;;;;;19.04;55.23;97155.00;2053805;28;20202;-56
2022/05/18 06:36:15;;;;;;;4.63;2.80;;;;;;;19.10;54.17;97154.56;2050295;28;20199;-56
2022/05/18 06:37:17;;;;;;;5.93;3.03;;;;;;;19.20;54.36;97157.41;2065671;28;20573;-56
2022/05/18 06:38:19;;;;;;;6.78;2.33;;;;;;;19.07;54.70;97115.06;2058546;28;20195;-56
2022/05/18 06:39:21;;;;;;;6.30;3.08;;;;;;;19.43;54.04;97153.09;2054218;28;20199;-56
2022/05/18 06:41:21;;;;;;;6.32;3.10;;;;;;;19.42;53.14;97157.53;2057200;28;20198;-57
2022/05/18 06:41:45;;;;;;;6.05;2.92;;;;;;;19.30;53.65;97152.28;2051483;28;20225;-57
2022/05/18 06:42:47;;;;;;;5.47;2.63;;;;;;;19.25;53.94;97145.53;2062097;28;20197;-57
2022/05/18 06:43:58;;;;;;;6.65;2.90;;;;;;;19.34;54.45;97151.97;2055593;28;20271;-57
2022/05/18 06:45:03;;;;;;;4.85;3.08;;;;;;;19.39;54.19;97147.16;2050107;28;20787;-57
2022/05/18 06:46:05;;;;;;;5.07;2.45;;;;;;;19.34;53.95;97153.78;2049628;28;20191;-57
2022/05/18 06:47:07;;;;;;;3.78;2.53;;;;;;;19.24;54.48;97146.47;2058266;28;20249;-57
2022/05/18 06:48:09;;;;;;;3.28;2.30;;;;;;;19.45;54.40;97147.69;2057106;28;20211;-57
2022/05/18 06:49:30;;;;;;;5.30;2.90;;;;;;;19.68;53.65;97149.50;2055901;28;20199;-57
2022/05/18 06:50:32;;;;;;;5.85;2.40;;;;;;;19.84;53.40;97154.53;2056896;28;20198;-57
2022/05/18 06:51:40;;;;;;;6.40;2.80;;;;;;;19.98;52.74;97145.53;2047344;28;20229;-57
2022/05/18 06:52:42;;;;;;;6.80;2.58;;;;;;;19.95;52.91;97148.44;2063519;28;20202;-57
2022/05/18 06:53:43;;;;;;;4.75;2.33;;;;;;;19.98;52.40;97145.53;2057121;28;20206;-57
2022/05/18 06:54:46;;;;;;;3.25;2.47;;;;;;;19.88;52.37;97150.72;2057586;28;20230;-57
2022/05/18 06:55:55;;;;;;;2.97;2.30;;;;;;;19.98;52.79;97147.34;2055219;28;20289;-57
2022/05/18 06:57:05;;;;;;;6.22;2.50;;;;;;;20.17;52.75;97149.47;2055379;28;20222;-57
2022/05/18 06:58:07;;;;;;;12.68;3.33;;;;;;;20.23;52.74;97146.34;2057601;28;20195;-57
2022/05/18 06:59:10;;;;;;;9.00;2.60;;;;;;;20.30;51.90;97154.69;2054371;28;20234;-57
2022/05/18 07:00:12;;;;;;;3.13;2.45;;;;;;;20.31;52.41;97149.25;2053545;28;20194;-57
2022/05/18 07:01:14;;;;;;;3.38;1.90;;;;;;;20.23;52.44;97136.59;2049205;28;20539;-57
2022/05/18 07:51:10;;;;;;;25.38;13.98;;;;;;;21.27;49.12;97168.41;2110046;27;20550;-56
2022/05/18 07:52:11;;;;;;;17.52;4.55;;;;;;;21.52;47.95;97153.97;2101526;28;20231;-56
2022/05/18 07:53:14;;;;;;;8.20;2.60;;;;;;;21.76;47.29;97162.75;2094930;28;20199;-56
2022/05/18 07:54:15;;;;;;;5.10;3.28;;;;;;;21.83;47.87;97162.13;2096843;28;20206;-56
2022/05/18 07:55:17;;;;;;;6.30;3.20;;;;;;;21.65;48.34;97158.34;2099906;28;20202;-58
2022/05/18 07:56:18;;;;;;;4.68;2.30;;;;;;;21.72;48.52;97161.34;2093068;27;25496;-58
2022/05/18 07:57:20;;;;;;;7.43;3.28;;;;;;;21.95;47.84;97165.59;2110305;28;20198;-59
2022/05/18 07:58:22;;;;;;;13.10;2.97;;;;;;;22.03;47.66;97159.66;2105711;28;20198;-59
2022/05/18 07:59:24;;;;;;;7.18;2.80;;;;;;;22.04;47.20;97156.00;2098923;28;20196;-59
2022/05/18 08:00:25;;;;;;;6.57;3.38;;;;;;;21.97;47.21;97155.66;2099643;28;20218;-58
2022/05/18 08:01:28;;;;;;;7.15;2.70;;;;;;;22.14;46.93;97159.59;2098915;28;20865;-58
2022/05/18 08:02:32;;;;;;;8.50;3.25;;;;;;;22.09;47.27;97160.94;2097154;28;20211;-58
2022/05/18 08:03:34;;;;;;;7.47;2.65;;;;;;;21.89;47.46;97160.78;2098480;28;20191;-58
2022/05/18 08:04:36;;;;;;;7.28;3.33;;;;;;;21.85;47.84;97164.66;2097798;28;20206;-58
2022/05/18 08:05:37;;;;;;;7.03;3.53;;;;;;;22.13;47.08;97160.56;2099717;28;20663;-58
2022/05/18 08:06:39;;;;;;;5.82;3.20;;;;;;;22.40;47.12;97158.38;2098764;28;20254;-58
2022/05/18 08:07:45;;;;;;;8.63;3.67;;;;;;;22.16;47.00;97160.28;2098783;28;20206;-58
2022/05/18 08:08:47;;;;;;;4.85;2.70;;;;;;;22.52;46.90;97170.63;2096730;28;20196;-58
2022/05/18 08:15:09;;;;;;;8.23;2.90;;;;;;;22.60;46.42;97167.31;2100530;28;20194;-58
2022/05/18 08:16:11;;;;;;;8.43;2.50;;;;;;;22.69;46.92;97166.56;2099747;28;20305;-59
2022/05/18 08:17:13;;;;;;;6.20;2.88;;;;;;;22.47;47.31;97167.53;2099913;28;20192;-59
2022/05/18 08:18:16;;;;;;;6.97;2.88;;;;;;;22.45;47.52;97166.84;2098620;28;20218;-58
2022/05/18 08:19:25;;;;;;;13.18;3.47;;;;;;;22.86;46.54;97170.41;2096874;28;20755;-58
2022/05/18 08:20:27;;;;;;;7.00;2.67;;;;;;;22.90;45.30;97163.00;2098213;28;20722;-58
2022/05/18 08:21:28;;;;;;;6.13;2.70;;;;;;;22.81;46.25;97161.97;2097558;28;20249;-58
2022/05/18 08:22:30;;;;;;;9.90;3.15;;;;;;;22.83;46.38;97158.22;2097675;28;20283;-58
2022/05/18 08:23:31;;;;;;;7.22;2.80;;;;;;;22.93;46.04;97160.06;2095979;28;20211;-58
2022/05/18 08:53:55;;;;;;;14.83;2.90;;;;;;;23.96;43.28;97172.28;2073734;27;1324458;-58
2022/05/18 08:55:28;;;;;;;4.38;2.90;;;;;;;23.77;44.12;97177.59;2115990;28;20296;-58
2022/05/18 08:56:35;;;;;;;15.32;2.50;;;;;;;23.78;44.38;97180.13;2095209;28;20216;-58
2022/05/18 08:57:43;;;;;;;24.70;3.65;;;;;;;24.19;42.91;97171.16;2083420;28;20196;-58
2022/05/18 08:58:48;;;;;;;22.27;3.70;;;;;;;24.24;42.11;97176.91;2082106;28;20193;-58
2022/05/18 08:59:56;;;;;;;6.72;2.42;;;;;;;24.27;42.71;97168.63;2082439;28;20212;-58
2022/05/18 09:01:17;;;;;;;8.90;2.75;;;;;;;24.55;42.21;97172.25;2082446;28;20231;-58
2022/05/18 09:02:25;;;;;;;4.15;2.45;;;;;;;23.79;42.94;97172.94;2088598;28;20254;-58
2022/05/18 09:03:44;;;;;;;4.82;2.55;;;;;;;24.01;42.29;97176.38;2091254;28;20199;-58
2022/05/18 09:04:59;;;;;;;5.85;2.42;;;;;;;24.29;39.80;97174.69;2081915;28;20197;-58
2022/05/18 09:06:41;;;;;;;8.23;2.15;;;;;;;24.73;38.64;97180.38;2082952;28;20561;-59
2022/05/18 09:07:47;;;;;;;4.18;2.33;;;;;;;24.86;37.91;97181.88;2081199;28;20314;-58
2022/05/18 09:10:12;;;;;;;2.53;1.95;;;;;;;25.02;37.77;97174.09;2083364;28;20196;-58
2022/05/18 09:10:54;;;;;;;3.33;2.15;;;;;;;25.17;37.52;97177.13;2082788;28;20377;-58
2022/05/18 09:31:14;;;;;;;2.97;1.73;;;;;;;25.58;37.72;97171.47;2101277;27;20558;-58
2022/05/18 09:32:41;;;;;;;4.57;1.80;;;;;;;25.43;36.77;97174.66;2069510;28;20799;-58
2022/05/18 09:34:03;;;;;;;7.28;1.80;;;;;;;25.29;36.47;97172.44;2070610;28;20373;-58
2022/05/18 09:35:23;;;;;;;5.63;1.70;;;;;;;25.32;36.14;97176.63;2070284;28;20201;-58
2022/05/18 09:37:02;;;;;;;7.13;1.90;;;;;;;25.48;35.52;97173.38;2069708;28;20232;-58
2022/05/18 09:38:06;;;;;;;5.65;1.45;;;;;;;25.28;35.20;97138.72;2070497;28;20194;-58
2022/05/18 09:39:13;;;;;;;8.32;2.33;;;;;;;25.35;35.43;97158.47;2070552;28;20214;-58
2022/05/18 09:40:40;;;;;;;2.17;1.75;;;;;;;26.11;34.56;97179.72;2070558;28;20198;-58
2022/05/18 09:41:57;;;;;;;2.72;1.70;;;;;;;26.40;34.08;97174.94;2070090;28;20221;-58
2022/05/18 09:43:07;;;;;;;6.47;1.83;;;;;;;25.94;34.83;97147.44;2069492;28;20645;-58
2022/05/18 09:44:29;;;;;;;3.97;1.65;;;;;;;26.06;34.22;97172.16;2070373;28;20272;-58
2022/05/18 09:45:34;;;;;;;3.35;2.13;;;;;;;26.21;34.74;97167.09;2070398;28;20224;-58
2022/05/18 10:08:21;;;;;;;4.95;1.60;;;;;;;25.93;34.34;97151.09;2075800;28;20197;-58
2022/05/18 10:09:22;;;;;;;2.97;1.75;;;;;;;25.51;34.13;97141.81;2075866;28;20198;-58
2022/05/18 10:10:31;;;;;;;1.95;1.23;;;;;;;25.72;33.15;97154.91;2077549;28;20676;-58
2022/05/18 10:11:34;;;;;;;2.35;1.77;;;;;;;26.02;33.38;97141.31;2074061;28;20221;-58
2022/05/18 10:12:48;;;;;;;3.30;1.88;;;;;;;26.29;33.62;97150.25;2073585;28;20213;-59
2022/05/18 10:13:55;;;;;;;1.88;1.40;;;;;;;26.29;34.22;97147.59;2073502;28;20243;-58
2022/05/18 10:15:03;;;;;;;7.20;1.77;;;;;;;25.70;34.12;97153.38;2076392;28;20197;-58
2022/05/18 10:27:30;;;;;;;3.97;1.50;;;;;;;26.87;32.74;97146.16;2101282;27;20565;-57
2022/05/18 10:28:31;;;;;;;2.95;1.65;;;;;;;27.11;32.75;97144.56;2103098;28;20272;-57
2022/05/18 10:29:33;;;;;;;2.55;1.30;;;;;;;26.92;32.69;97133.13;2102695;28;20203;-57
2022/05/18 10:30:37;;;;;;;2.50;1.80;;;;;;;27.11;33.08;97134.72;2094608;28;20244;-58
2022/05/18 10:31:46;;;;;;;9.65;1.92;;;;;;;27.17;32.66;97139.44;2083459;28;20225;-57
2022/05/18 10:33:00;;;;;;;2.47;1.40;;;;;;;27.00;33.51;97138.50;2078662;28;20197;-57
2022/05/18 10:34:15;;;;;;;2.30;1.45;;;;;;;26.65;33.33;97144.81;2078051;28;20205;-58
2022/05/18 10:35:34;;;;;;;5.07;2.10;;;;;;;26.59;33.86;97132.91;2078785;28;20208;-58
2022/05/18 10:36:52;;;;;;;2.75;1.58;;;;;;;26.75;33.54;97134.84;2072635;28;20916;-57
2022/05/18 10:38:00;;;;;;;5.15;1.88;;;;;;;27.24;33.38;97130.75;2070531;28;20200;-58
2022/05/18 10:39:04;;;;;;;10.52;1.90;;;;;;;27.72;33.16;97139.09;2069306;28;20240;-58
2022/05/18 10:49:07;;;;;;;12.53;1.90;;;;;;;29.31;29.29;97133.25;2076204;27;1225711;-58
2022/05/18 10:50:20;;;;;;;10.98;1.85;;;;;;;28.37;30.67;97141.03;2111666;28;20466;-58
2022/05/18 10:51:41;;;;;;;5.32;2.20;;;;;;;28.02;31.30;97134.94;2107409;28;20215;-58
2022/05/18 10:52:43;;;;;;;6.90;2.00;;;;;;;28.45;30.28;97138.31;2099115;28;20191;-57
2022/05/18 10:53:46;;;;;;;2.25;1.27;;;;;;;27.39;31.48;97142.56;2099043;28;20218;-58
2022/05/18 10:54:53;;;;;;;3.28;1.55;;;;;;;26.84;32.29;97139.28;2098621;28;20531;-57
2022/05/18 10:56:00;;;;;;;1.90;1.27;;;;;;;27.43;31.54;97138.53;2100161;28;20199;-57
2022/05/18 10:57:16;;;;;;;4.38;1.85;;;;;;;27.09;31.28;97128.66;2100099;28;20281;-58
2022/05/18 10:58:25;;;;;;;3.65;1.25;;;;;;;27.31;31.99;97135.31;2091510;28;20838;-58
2022/05/18 11:00:02;;;;;;;3.80;1.75;;;;;;;27.50;32.11;97109.22;2093514;28;20192;-58
2022/05/18 11:09:59;;;;;;;9.07;1.58;;;;;;;28.89;29.72;97117.47;2084212;28;20546;-57
2022/05/18 11:11:35;;;;;;;3.58;1.67;;;;;;;29.07;29.48;97120.75;2078231;28;20197;-58
2022/05/18 11:12:53;;;;;;;7.68;1.60;;;;;;;28.50;30.28;97117.16;2069965;28;20206;-57
2022/05/18 11:14:04;;;;;;;2.58;1.30;;;;;;;27.35;31.76;97123.25;2069595;28;20204;-58
2022/05/18 11:15:08;;;;;;;6.70;1.40;;;;;;;27.40;31.79;97121.94;2070087;28;20201;-58
2022/05/18 11:16:22;;;;;;;2.20;1.45;;;;;;;27.67;31.59;97119.00;2069894;28;20556;-58
2022/05/18 11:17:42;;;;;;;2.17;1.50;;;;;;;27.18;31.64;97116.97;2070459;28;20588;-58
2022/05/18 11:18:55;;;;;;;2.42;1.70;;;;;;;27.32;31.27;97114.69;2069767;28;20189;-57
2022/05/18 11:20:14;;;;;;;3.45;1.83;;;;;;;27.53;31.47;97123.16;2070398;28;20672;-58
2022/05/18 11:29:49;;;;;;;22.58;2.75;;;;;;;28.06;31.47;97106.81;2085447;28;21076;-57
2022/05/18 11:31:12;;;;;;;16.45;3.03;;;;;;;28.91;29.54;97105.53;2080857;28;20193;-58
2022/05/18 11:32:16;;;;;;;6.32;2.25;;;;;;;29.07;30.03;97099.22;2072244;28;20283;-57
2022/05/18 11:33:36;;;;;;;5.40;1.75;;;;;;;29.30;29.69;97107.38;2072217;28;20197;-58
2022/05/18 11:34:53;;;;;;;10.65;2.10;;;;;;;29.55;29.70;97106.44;2070954;28;20201;-58
2022/05/18 11:36:04;;;;;;;2.88;1.27;;;;;;;30.52;29.09;97111.25;2071653;28;20701;-58
2022/05/18 11:37:14;;;;;;;4.45;1.52;;;;;;;30.19;29.28;97102.63;2072734;28;20252;-58
2022/05/18 11:38:18;;;;;;;8.00;2.03;;;;;;;30.67;28.41;97111.25;2074705;28;20197;-58
2022/05/18 11:47:18;;;;;;;4.90;1.27;;;;;;;31.61;27.36;97107.09;2082480;27;20564;-58
2022/05/18 11:48:39;;;;;;;17.50;2.13;;;;;;;30.33;28.92;97104.50;2079286;28;20200;-58
2022/05/18 11:50:15;;;;;;;8.70;2.60;;;;;;;31.10;28.05;97103.38;2078093;28;20207;-58
2022/05/18 11:51:31;;;;;;;3.97;1.30;;;;;;;31.29;28.30;97103.81;2078029;28;20205;-58
2022/05/18 11:53:03;;;;;;;2.60;1.33;;;;;;;31.22;27.43;97092.97;2077231;28;20430;-58
2022/05/18 11:54:22;;;;;;;7.87;1.80;;;;;;;30.50;28.68;97093.59;2076826;28;20427;-59
2022/05/18 11:55:45;;;;;;;16.00;2.53;;;;;;;29.65;29.35;97096.28;2078794;28;20437;-59
2022/05/18 12:04:11;;;;;;;6.90;1.75;;;;;;;29.01;31.14;97078.44;2108534;27;20610;-58
2022/05/18 12:05:34;;;;;;;4.90;2.50;;;;;;;29.35;31.47;97076.47;2106970;28;20186;-58
2022/05/18 12:07:10;;;;;;;4.10;2.20;;;;;;;29.22;31.54;97074.31;2063433;28;20716;-58
2022/05/18 12:08:30;;;;;;;25.10;4.13;;;;;;;29.24;31.79;97074.97;2080112;28;20197;-58
2022/05/18 12:10:12;;;;;;;15.93;3.78;;;;;;;30.41;30.64;97072.09;2083153;28;20203;-58
2022/05/18 12:11:37;;;;;;;12.32;3.05;;;;;;;29.52;29.69;97072.63;2079645;28;20682;-58
2022/05/18 12:17:23;;;;;;;3.38;1.42;;;;;;;30.10;29.26;97067.66;2085669;28;20560;-59
2022/05/18 12:18:37;;;;;;;4.03;1.48;;;;;;;30.49;28.70;97065.81;2078626;28;20519;-59
2022/05/18 12:20:00;;;;;;;9.45;7.65;;;;;;;29.56;29.85;97063.22;2078414;28;20201;-58
2022/05/18 12:21:10;;;;;;;2.88;2.10;;;;;;;29.09;30.74;97058.72;2077572;28;20667;-59
2022/05/18 12:22:19;;;;;;;7.00;1.67;;;;;;;29.51;30.09;97062.06;2070675;28;20575;-58
2022/05/18 12:23:29;;;;;;;4.45;1.73;;;;;;;29.24;30.19;97061.50;2070650;28;20233;-58
2022/05/18 12:24:30;;;;;;;3.38;2.10;;;;;;;29.31;30.32;97059.84;2070663;28;20198;-58
2022/05/18 12:25:32;;;;;;;1.95;1.42;;;;;;;29.27;29.85;97063.88;2070564;28;20198;-59
2022/05/18 12:26:38;;;;;;;3.30;2.10;;;;;;;29.85;29.52;97063.50;2070123;28;20228;-58
2022/05/18 12:27:40;;;;;;;3.28;1.30;;;;;;;30.19;29.26;97054.97;2070537;28;20586;-58
2022/05/18 12:28:44;;;;;;;12.15;2.25;;;;;;;30.91;29.67;97053.53;2070024;28;20197;-58
2022/05/18 12:29:46;;;;;;;3.30;2.15;;;;;;;29.54;30.90;97064.41;2070612;28;20198;-58
2022/05/18 12:34:33;;;;;;;7.05;1.65;;;;;;;29.09;31.87;97064.97;2083793;27;20584;-58
2022/05/18 12:35:56;;;;;;;10.18;2.42;;;;;;;28.52;32.63;97056.06;2082561;28;20210;-59
2022/05/18 12:37:20;;;;;;;7.55;2.00;;;;;;;28.81;32.18;97065.41;2075512;28;20236;-58
2022/05/18 12:38:33;;;;;;;4.60;1.75;;;;;;;29.43;30.54;97063.81;2075761;28;20197;-58
2022/05/18 12:39:46;;;;;;;4.60;2.42;;;;;;;29.55;31.19;97058.00;2070414;28;20205;-58
2022/05/18 12:41:06;;;;;;;8.00;2.20;;;;;;;30.58;30.29;97053.94;2075172;28;20198;-58
2022/05/18 12:42:13;;;;;;;18.50;2.78;;;;;;;30.68;29.39;97042.03;2070460;28;20225;-59
2022/05/18 12:43:24;;;;;;;3.45;2.10;;;;;;;28.14;32.48;97061.19;2069818;28;20272;-58
2022/05/18 12:44:34;;;;;;;2.67;1.90;;;;;;;28.56;32.24;97059.25;2071858;28;20852;-58
2022/05/18 12:45:41;;;;;;;13.50;6.95;;;;;;;28.54;32.14;97044.31;2073489;28;20290;-58
2022/05/18 12:46:57;;;;;;;5.70;1.88;;;;;;;28.58;32.54;97053.72;2075239;28;20228;-58
2022/05/18 12:48:37;;;;;;;4.10;2.20;;;;;;;29.37;31.77;97051.06;2091069;28;20233;-58
2022/05/18 12:49:44;;;;;;;2.90;2.03;;;;;;;29.75;31.25;97042.19;2065657;28;20201;-58
2022/05/18 12:50:48;;;;;;;8.27;2.47;;;;;;;29.64;31.07;97055.06;2075223;28;20899;-58
2022/05/18 12:52:03;;;;;;;2.38;2.05;;;;;;;30.05;30.64;97055.78;2073012;28;20227;-58
2022/05/18 12:53:13;;;;;;;4.50;1.80;;;;;;;30.25;30.35;97045.34;2087878;28;20192;-58
2022/05/18 12:54:29;;;;;;;2.38;1.90;;;;;;;29.47;30.29;97048.13;2072303;28;20220;-58
2022/05/18 12:55:31;;;;;;;4.43;2.25;;;;;;;29.80;30.24;97059.50;2072613;28;20604;-57
2022/05/18 12:56:35;;;;;;;14.23;2.05;;;;;;;29.63;30.31;97055.25;2072871;28;20695;-58
2022/05/18 12:57:39;;;;;;;4.05;1.85;;;;;;;29.80;30.92;97050.56;2087837;28;20612;-58
2022/05/18 12:58:53;;;;;;;6.20;2.25;;;;;;;29.84;29.95;97051.91;2077552;28;20231;-57
2022/05/18 13:00:25;;;;;;;4.22;1.83;;;;;;;29.46;30.62;97058.06;2074615;28;20206;-57
2022/05/18 13:01:35;;;;;;;4.70;1.27;;;;;;;28.93;31.64;97057.81;2075020;28;20224;-58
2022/05/18 13:02:38;;;;;;;3.05;1.83;;;;;;;28.70;31.53;97060.41;2071277;28;20438;-57
2022/05/18 13:03:48;;;;;;;4.32;1.90;;;;;;;29.07;30.78;97056.22;2072245;28;20260;-58
2022/05/18 13:04:49;;;;;;;3.85;1.50;;;;;;;29.24;30.68;97053.44;2071897;28;20208;-57
2022/05/18 13:05:55;;;;;;;2.90;2.13;;;;;;;30.17;30.25;97046.25;2071494;28;20193;-58
2022/05/18 13:07:31;;;;;;;5.78;1.80;;;;;;;30.87;29.22;97054.13;2077114;28;20220;-57
2022/05/18 13:08:35;;;;;;;12.35;2.53;;;;;;;30.51;29.61;97053.00;2078877;28;20198;-58
2022/05/18 13:09:39;;;;;;;4.40;2.00;;;;;;;31.59;29.16;97047.91;2073469;28;20192;-58
2022/05/18 13:11:13;;;;;;;4.37;1.70;;;;;;;32.17;28.20;97049.69;2074297;28;20250;-58
2022/05/18 13:12:24;;;;;;;10.10;1.40;;;;;;;33.04;27.87;97052.97;2074069;28;20809;-58
2022/05/18 13:13:26;;;;;;;13.67;2.07;;;;;;;31.04;29.18;97052.03;2074691;28;20434;-57
2022/05/18 13:14:30;;;;;;;2.17;1.70;;;;;;;31.39;28.41;97045.00;2074169;28;20459;-58
2022/05/18 13:15:38;;;;;;;3.30;1.67;;;;;;;31.16;28.49;97052.41;2074101;28;20427;-58
2022/05/18 13:16:39;;;;;;;3.57;2.00;;;;;;;31.43;28.04;97046.28;2074991;28;20457;-58
2022/05/18 13:18:14;;;;;;;3.67;1.77;;;;;;;32.35;27.57;97048.41;2090292;28;20434;-58
2022/05/18 13:19:20;;;;;;;7.70;1.80;;;;;;;31.35;27.62;97038.34;2071048;28;20435;-58
2022/05/18 13:20:26;;;;;;;3.37;1.80;;;;;;;30.42;29.79;97051.38;2071794;28;20437;-58
2022/05/18 13:21:31;;;;;;;5.10;1.73;;;;;;;30.45;28.69;97033.00;2071866;28;20461;-58
2022/05/18 13:22:49;;;;;;;1.80;1.60;;;;;;;30.27;28.72;97049.53;2089421;28;20711;-58
2022/05/18 13:23:54;;;;;;;5.60;2.83;;;;;;;29.88;29.48;97047.84;2072365;28;20428;-58
2022/05/18 13:24:59;;;;;;;5.70;1.47;;;;;;;29.52;30.54;97050.28;2074493;28;20430;-58
2022/05/18 13:26:28;;;;;;;1.97;1.60;;;;;;;29.95;30.68;97043.44;2063939;28;20426;-58
2022/05/18 13:27:31;;;;;;;21.10;9.70;;;;;;;31.38;29.28;97040.63;2091081;28;21157;-58
2022/05/18 13:28:34;;;;;;;6.93;3.50;;;;;;;32.31;27.77;97047.94;2084113;28;20422;-58
2022/05/18 13:29:36;;;;;;;5.53;1.90;;;;;;;32.82;26.69;97049.53;2073129;28;20438;-58
2022/05/18 13:30:44;;;;;;;5.80;2.10;;;;;;;33.24;25.94;97044.06;2074290;28;20430;-57
2022/05/18 13:32:11;;;;;;;2.80;1.60;;;;;;;30.53;28.40;97039.38;2069106;28;20906;-58
2022/05/18 13:33:14;;;;;;;4.07;1.60;;;;;;;31.58;27.67;97037.31;2073894;28;20432;-58
2022/05/18 13:34:26;;;;;;;7.93;3.03;;;;;;;32.06;27.09;97034.00;2074820;28;20475;-57
2022/05/18 13:35:30;;;;;;;5.17;2.10;;;;;;;32.24;26.47;97033.59;2070810;28;20427;-58
2022/05/18 13:36:59;;;;;;;1.80;1.53;;;;;;;31.74;27.32;97039.78;2072988;28;20472;-58
2022/05/18 13:38:09;;;;;;;7.57;1.40;;;;;;;31.41;27.42;97040.28;2084230;28;20452;-58
2022/05/18 13:39:12;;;;;;;2.20;1.40;;;;;;;31.75;27.68;97027.13;2071212;28;20454;-58
2022/05/18 13:40:13;;;;;;;1.53;1.30;;;;;;;31.47;27.75;97030.56;2073372;28;20426;-58
2022/05/18 13:41:16;;;;;;;10.20;2.13;;;;;;;29.91;30.09;97030.50;2069422;28;20439;-58
2022/05/18 13:42:20;;;;;;;5.90;2.07;;;;;;;29.94;30.47;97038.22;2091228;28;21108;-57
2022/05/18 13:43:22;;;;;;;3.60;1.90;;;;;;;31.34;28.72;97035.81;2085468;28;20426;-57
2022/05/18 13:44:26;;;;;;;10.80;1.50;;;;;;;32.11;27.42;97030.75;2069055;28;20435;-57
2022/05/18 13:45:29;;;;;;;17.53;1.90;;;;;;;32.73;26.80;97037.19;2069434;28;20891;-58
2022/05/18 13:46:32;;;;;;;7.53;1.90;;;;;;;31.61;27.20;97034.22;2066206;28;20480;-58
2022/05/18 13:47:39;;;;;;;5.30;2.73;;;;;;;30.51;29.28;97030.63;2084142;28;20549;-58
2022/05/18 13:48:42;;;;;;;25.13;2.17;;;;;;;29.88;29.79;97033.53;2072727;28;20415;-57
2022/05/18 13:49:52;;;;;;;13.70;2.70;;;;;;;30.27;29.44;97041.44;2068236;28;20938;-58
2022/05/18 13:51:09;;;;;;;6.60;2.40;;;;;;;31.96;28.07;97028.97;2066441;28;20446;-58
2022/05/18 13:52:19;;;;;;;7.80;2.00;;;;;;;32.13;27.30;97026.81;2065123;28;20439;-57
2022/05/18 13:53:46;;;;;;;12.10;2.07;;;;;;;32.62;27.36;97025.09;2069890;28;20789;-57
2022/05/18 13:54:54;;;;;;;8.63;2.20;;;;;;;31.68;27.35;97015.44;2057553;28;20539;-57
2022/05/18 13:56:04;;;;;;;4.10;1.90;;;;;;;31.10;27.52;97021.66;2059032;28;21074;-58
2022/05/18 13:57:10;;;;;;;6.17;2.17;;;;;;;30.25;29.02;97013.84;2069421;28;20458;-57
2022/05/18 13:58:16;;;;;;;7.27;1.90;;;;;;;29.38;30.11;97009.72;2065608;28;20429;-58
2022/05/18 13:59:26;;;;;;;8.47;2.00;;;;;;;30.53;29.87;97013.25;2069939;28;20431;-57
2022/05/18 14:00:58;;;;;;;4.63;1.50;;;;;;;31.98;29.09;97007.19;2066532;28;20903;-57
2022/05/18 14:02:02;;;;;;;4.57;1.70;;;;;;;32.47;27.49;97005.44;2053889;28;20537;-57
2022/05/18 14:03:05;;;;;;;4.07;1.63;;;;;;;32.45;27.72;97004.81;2064600;28;20523;-57
2022/05/18 14:04:31;;;;;;;4.10;2.13;;;;;;;32.61;26.96;97001.78;2068667;28;20431;-59
2022/05/18 14:05:57;;;;;;;14.90;2.10;;;;;;;31.46;28.48;96995.69;2067840;28;20428;-58
2022/05/18 14:07:03;;;;;;;5.23;1.57;;;;;;;32.47;28.08;97000.88;2068808;28;20440;-59
2022/05/18 14:08:30;;;;;;;3.70;1.73;;;;;;;30.81;29.46;96998.28;2068698;28;20438;-58
2022/05/18 14:09:45;;;;;;;4.23;1.70;;;;;;;30.22;30.43;96989.16;2068763;28;20424;-59
2022/05/18 14:10:47;;;;;;;9.80;1.80;;;;;;;31.29;28.84;96997.78;2069744;28;20432;-58
2022/05/18 14:11:55;;;;;;;4.70;1.83;;;;;;;30.89;29.28;96993.63;2073267;28;20474;-58
2022/05/18 14:13:00;;;;;;;4.77;1.70;;;;;;;30.20;29.83;97008.19;2081687;28;20422;-59
2022/05/18 14:14:03;;;;;;;11.93;1.70;;;;;;;28.77;30.73;96986.19;2068504;28;21016;-58
2022/05/18 14:15:29;;;;;;;5.20;1.70;;;;;;;28.46;30.81;96986.94;2066859;28;20885;-58
2022/05/18 14:16:58;;;;;;;5.15;1.80;;;;;;;28.82;31.74;96989.19;2063947;28;20501;-58
2022/05/18 14:18:28;;;;;;;5.63;1.90;;;;;;;29.89;30.08;96997.56;2074934;28;20244;-58
2022/05/18 14:20:03;;;;;;;2.90;1.40;;;;;;;29.38;30.09;96990.03;2067070;28;20294;-57
2022/05/18 14:21:10;;;;;;;10.80;1.77;;;;;;;29.13;30.37;96984.81;2057543;28;20439;-58
2022/05/18 14:22:17;;;;;;;6.13;2.30;;;;;;;30.23;29.31;96982.75;2082880;28;20421;-58
2022/05/18 14:23:56;;;;;;;6.72;1.38;;;;;;;29.86;30.49;96982.56;2079833;28;20434;-58
2022/05/18 14:24:57;;;;;;;7.73;1.80;;;;;;;31.66;28.46;96995.91;2059601;28;20194;-58
2022/05/18 14:26:04;;;;;;;4.80;1.57;;;;;;;32.47;27.12;96997.34;2060676;28;20435;-59
2022/05/18 14:27:11;;;;;;;7.13;1.80;;;;;;;32.71;26.56;96999.56;2068029;28;20464;-58
2022/05/18 14:28:23;;;;;;;5.63;1.53;;;;;;;31.33;28.14;96993.69;2060883;28;20432;-58
2022/05/18 14:29:33;;;;;;;3.20;1.40;;;;;;;31.75;27.16;96994.75;2058907;28;21143;-58
2022/05/18 14:30:38;;;;;;;3.07;1.63;;;;;;;30.77;28.51;96987.84;2068768;28;20428;-58
2022/05/18 14:32:05;;;;;;;2.73;1.70;;;;;;;30.56;28.72;96983.25;2072540;28;21069;-58
2022/05/18 14:33:19;;;;;;;4.80;1.83;;;;;;;30.97;28.54;96992.66;2084086;28;20425;-58
2022/05/18 14:35:01;;;;;;;3.07;1.83;;;;;;;29.62;29.53;96984.47;2069349;28;20435;-58
2022/05/18 14:36:08;;;;;;;3.17;1.97;;;;;;;29.64;30.45;96987.81;2027053;29;20443;-58
2022/05/18 14:37:13;;;;;;;8.33;2.47;;;;;;;30.79;29.32;96976.88;2054749;28;20437;-78
2022/05/18 14:38:28;;;;;;;2.50;1.57;;;;;;;31.34;28.46;96979.16;2059242;28;20449;-60
2022/05/18 14:39:44;;;;;;;3.53;1.40;;;;;;;29.74;29.63;96984.06;2066894;28;20451;-61
2022/05/18 14:40:47;;;;;;;27.63;2.53;;;;;;;30.00;30.09;96980.97;2065139;28;20431;-63
2022/05/18 14:41:52;;;;;;;5.03;1.53;;;;;;;31.17;28.53;96989.38;2068616;28;20470;-62
2022/05/18 14:42:54;;;;;;;3.97;1.60;;;;;;;31.65;27.84;96978.88;2072219;28;20438;-62
2022/05/18 14:43:58;;;;;;;5.60;2.03;;;;;;;31.58;26.93;96978.78;2067191;28;21053;-62
2022/05/18 14:45:07;;;;;;;5.20;2.07;;;;;;;31.71;27.17;96975.41;2063963;28;20432;-62
2022/05/18 14:46:11;;;;;;;5.07;1.50;;;;;;;32.11;27.56;96979.44;2070566;28;20908;-62
2022/05/18 14:47:22;;;;;;;3.53;1.40;;;;;;;30.25;29.17;96984.22;2066600;28;20439;-63
2022/05/18 14:48:29;;;;;;;2.30;1.40;;;;;;;29.96;28.68;96979.66;2066257;28;20436;-63
2022/05/18 14:49:36;;;;;;;2.17;1.50;;;;;;;29.73;29.54;96975.13;2068260;28;20428;-62
2022/05/18 14:50:43;;;;;;;2.43;1.60;;;;;;;29.29;29.96;96990.13;2066233;28;20784;-61
2022/05/18 14:51:48;;;;;;;7.30;2.10;;;;;;;29.27;29.71;96981.34;2060493;28;20466;-61
2022/05/18 14:53:04;;;;;;;3.63;1.90;;;;;;;29.53;29.89;96985.53;2083426;28;20429;-62
2022/05/18 14:54:14;;;;;;;3.60;2.03;;;;;;;29.09;29.84;96980.78;2066117;28;20431;-61
2022/05/18 14:55:24;;;;;;;2.37;1.60;;;;;;;29.35;30.16;96980.47;2067068;28;20894;-61
2022/05/18 14:56:39;;;;;;;5.50;1.70;;;;;;;29.27;30.38;96975.16;2061406;28;20468;-61
2022/05/18 14:57:42;;;;;;;3.43;1.77;;;;;;;29.47;29.86;96980.88;2081252;28;20436;-62
2022/05/18 14:58:56;;;;;;;6.47;1.75;;;;;;;29.61;29.34;96976.56;2069944;28;20427;-61
2022/05/18 15:00:04;;;;;;;2.70;1.13;;;;;;;28.71;30.46;96976.13;2070458;28;20664;-61
2022/05/18 15:01:33;;;;;;;2.03;1.60;;;;;;;28.89;30.79;96967.81;2058637;28;20923;-61
2022/05/18 15:02:39;;;;;;;4.17;1.40;;;;;;;29.61;29.57;96981.94;2080808;28;20233;-61
2022/05/18 15:03:43;;;;;;;5.90;1.73;;;;;;;30.44;28.92;96977.44;2070943;28;20439;-61